createdAt,value
2023-04-04T00:01:44.707Z,9.93
2023-04-04T00:04:12.703Z,9.75
2023-04-04T00:06:44.310Z,8.62
2023-04-04T00:09:13.937Z,7.11
2023-04-04T00:11:42.024Z,9.18
2023-04-04T00:14:09.766Z,9.33
2023-04-04T00:16:37.790Z,8.00
2023-04-04T00:19:05.386Z,8.53
2023-04-04T00:21:33.048Z,9.71
2023-04-04T00:24:00.677Z,9.75
2023-04-04T00:26:29.687Z,8.00
2023-04-04T00:28:57.315Z,10.14
2023-04-04T00:31:25.016Z,9.77
2023-04-04T00:33:52.734Z,8.72
2023-04-04T00:36:20.370Z,8.44
2023-04-04T00:38:47.994Z,9.01
2023-04-04T00:41:15.858Z,7.28
2023-04-04T00:43:44.915Z,8.77
2023-04-04T00:46:14.933Z,8.54
2023-04-04T00:48:42.987Z,9.13
2023-04-04T00:51:10.597Z,9.85
2023-04-04T00:53:38.278Z,9.54
2023-04-04T00:56:06.937Z,9.12
2023-04-04T00:58:34.575Z,8.35
2023-04-04T01:01:03.618Z,8.84
2023-04-04T01:03:31.305Z,9.56
2023-04-04T01:05:59.006Z,9.96
2023-04-04T01:08:27.174Z,10.75
2023-04-04T01:10:55.277Z,9.75
2023-04-04T01:13:23.745Z,10.65
2023-04-04T01:15:52.742Z,10.60
2023-04-04T01:18:22.773Z,10.39
2023-04-04T01:20:53.075Z,9.34
2023-04-04T01:23:20.913Z,9.92
2023-04-04T01:25:50.530Z,11.55
2023-04-04T01:28:18.274Z,10.90
2023-04-04T01:30:46.420Z,11.04
2023-04-04T01:33:15.805Z,9.87
2023-04-04T01:35:45.200Z,10.29
2023-04-04T01:38:16.828Z,9.20
2023-04-04T01:40:46.586Z,8.24
2023-04-04T01:43:15.735Z,10.66
2023-04-04T01:45:46.227Z,11.40
2023-04-04T01:48:16.625Z,11.22
2023-04-04T01:50:47.639Z,11.06
2023-04-04T01:53:15.415Z,10.23
2023-04-04T01:55:43.942Z,9.88
2023-04-04T01:58:11.698Z,9.92
2023-04-04T02:00:41.618Z,10.24
2023-04-04T02:03:09.441Z,10.34
2023-04-04T02:05:37.040Z,10.84
2023-04-04T02:08:04.712Z,10.48
2023-04-04T02:10:41.613Z,10.28
2023-04-04T02:13:09.540Z,10.44
2023-04-04T02:15:37.185Z,10.24
2023-04-04T02:18:07.163Z,11.22
2023-04-04T02:20:35.077Z,10.84
2023-04-04T02:23:02.724Z,11.05
2023-04-04T02:25:30.375Z,10.06
2023-04-04T02:27:57.989Z,10.47
2023-04-04T02:30:25.649Z,10.20
2023-04-04T02:32:53.466Z,9.94
2023-04-04T02:35:23.531Z,10.59
2023-04-04T02:37:51.376Z,10.48
2023-04-04T02:40:24.141Z,10.07
2023-04-04T02:42:51.792Z,11.03
2023-04-04T02:45:21.461Z,10.91
2023-04-04T02:48:07.519Z,10.69
2023-04-04T02:50:43.230Z,10.83
2023-04-04T02:53:13.890Z,9.86
2023-04-04T02:55:42.208Z,11.48
2023-04-04T02:58:10.368Z,10.77
2023-04-04T03:00:38.373Z,10.60
2023-04-04T03:03:06.266Z,9.87
2023-04-04T03:05:39.312Z,10.61
2023-04-04T03:08:08.895Z,9.98
2023-04-04T03:10:36.704Z,10.82
2023-04-04T03:13:04.909Z,11.45
2023-04-04T03:15:35.007Z,10.63
2023-04-04T03:18:03.407Z,9.80
2023-04-04T03:20:33.546Z,10.86
2023-04-04T03:23:01.237Z,10.01
2023-04-04T03:25:30.245Z,9.77
2023-04-04T03:27:58.128Z,10.27
2023-04-04T03:30:27.511Z,9.59
2023-04-04T03:32:55.734Z,9.80
2023-04-04T03:35:23.490Z,9.77
2023-04-04T03:37:51.189Z,9.80
2023-04-04T03:40:18.812Z,9.93
2023-04-04T03:42:47.876Z,9.55
2023-04-04T03:45:20.119Z,9.88
2023-04-04T03:47:48.201Z,9.55
2023-04-04T03:50:16.725Z,9.38
2023-04-04T03:52:50.618Z,9.63
2023-04-04T03:55:19.573Z,9.37
2023-04-04T03:57:48.637Z,9.16
2023-04-04T04:00:17.842Z,9.77
2023-04-04T04:02:46.509Z,9.52
2023-04-04T04:05:14.381Z,9.62
2023-04-04T04:07:43.921Z,9.50
2023-04-04T04:10:12.110Z,10.13
2023-04-04T04:12:39.889Z,10.55
2023-04-04T04:15:09.654Z,10.92
2023-04-04T04:17:39.778Z,9.18
2023-04-04T04:20:09.446Z,8.67
2023-04-04T04:22:46.197Z,9.01
2023-04-04T04:25:14.160Z,9.73
2023-04-04T04:27:44.752Z,9.26
2023-04-04T04:30:14.263Z,8.96
2023-04-04T04:32:45.266Z,9.10
2023-04-04T04:35:14.763Z,9.27
2023-04-04T04:37:43.019Z,9.04
2023-04-04T04:40:11.196Z,9.04
2023-04-04T04:42:44.590Z,9.23
2023-04-04T04:45:14.202Z,9.35
2023-04-04T04:47:46.236Z,10.02
2023-04-04T04:50:17.689Z,9.46
2023-04-04T04:52:51.133Z,9.44
2023-04-04T04:55:18.985Z,8.96
2023-04-04T04:57:54.829Z,9.52
2023-04-04T05:00:28.430Z,10.22
2023-04-04T05:02:56.235Z,9.46
2023-04-04T05:05:33.647Z,8.93
2023-04-04T05:08:05.640Z,9.51
2023-04-04T05:10:35.881Z,10.15
2023-04-04T05:13:03.821Z,10.51
2023-04-04T05:15:40.519Z,10.07
2023-04-04T05:18:09.175Z,9.75
2023-04-04T05:20:37.442Z,10.18
2023-04-04T05:23:07.413Z,9.79
2023-04-04T05:25:39.792Z,10.03
2023-04-04T05:28:08.119Z,10.38
2023-04-04T05:30:39.194Z,11.31
2023-04-04T05:33:23.238Z,11.73
2023-04-04T05:36:03.784Z,12.43
2023-04-04T05:38:33.746Z,12.96
2023-04-04T05:41:01.503Z,11.93
2023-04-04T05:43:29.188Z,12.42
2023-04-04T05:46:06.240Z,12.33
2023-04-04T05:48:43.982Z,12.29
2023-04-04T05:51:12.402Z,12.43
2023-04-04T05:53:59.810Z,11.68
2023-04-04T05:56:34.289Z,11.04
2023-04-04T05:59:04.427Z,10.88
2023-04-04T06:01:35.483Z,12.17
2023-04-04T06:04:11.227Z,12.69
2023-04-04T06:06:41.886Z,12.96
2023-04-04T06:09:13.054Z,11.50
2023-04-04T06:11:40.907Z,13.06
2023-04-04T06:14:13.293Z,14.12
2023-04-04T06:16:42.499Z,13.35
2023-04-04T06:19:11.505Z,12.28
2023-04-04T06:21:39.180Z,12.62
2023-04-04T06:24:07.184Z,12.83
2023-04-04T06:26:35.025Z,12.17
2023-04-04T06:29:04.887Z,11.48
2023-04-04T06:31:35.467Z,12.43
2023-04-04T06:34:09.069Z,11.92
2023-04-04T06:36:51.746Z,9.87
2023-04-04T06:39:19.799Z,8.91
2023-04-04T06:41:49.025Z,11.35
2023-04-04T06:44:17.189Z,13.65
2023-04-04T06:46:44.863Z,12.37
2023-04-04T06:49:12.516Z,14.07
2023-04-04T06:51:42.994Z,11.35
2023-04-04T06:54:12.067Z,10.79
2023-04-04T06:56:39.705Z,11.36
2023-04-04T06:59:11.331Z,12.49
2023-04-04T07:01:39.119Z,12.25
2023-04-04T07:04:07.001Z,12.84
2023-04-04T07:06:34.640Z,12.78
2023-04-04T07:09:03.352Z,13.22
2023-04-04T07:11:32.416Z,12.58
2023-04-04T07:14:00.057Z,13.12
2023-04-04T07:16:28.321Z,12.17
2023-04-04T07:18:56.545Z,13.95
2023-04-04T07:21:24.765Z,13.18
2023-04-04T07:23:52.405Z,13.29
2023-04-04T07:26:20.052Z,12.56
2023-04-04T07:28:49.039Z,13.13
2023-04-04T07:31:16.654Z,12.27
2023-04-04T07:33:44.343Z,13.55
2023-04-04T07:36:12.086Z,12.56
2023-04-04T07:38:39.744Z,12.61
2023-04-04T07:41:07.434Z,12.16
2023-04-04T07:43:35.134Z,12.18
2023-04-04T07:46:04.280Z,13.55
2023-04-04T07:48:31.918Z,14.24
2023-04-04T07:51:00.211Z,14.02
2023-04-04T07:53:28.279Z,12.98
2023-04-04T07:55:55.896Z,15.72
2023-04-04T07:58:23.514Z,16.72
2023-04-04T08:00:51.109Z,16.73
2023-04-04T08:03:20.314Z,16.70
2023-04-04T08:05:48.107Z,15.82
2023-04-04T08:08:16.460Z,15.87
2023-04-04T08:10:45.388Z,14.81
2023-04-04T08:13:13.148Z,14.37
2023-04-04T08:15:40.824Z,14.71
2023-04-04T08:18:08.579Z,16.22
2023-04-04T08:20:38.034Z,15.64
2023-04-04T08:23:05.887Z,16.48
2023-04-04T08:25:34.949Z,18.17
2023-04-04T08:28:04.290Z,16.91
2023-04-04T08:30:32.012Z,16.24
2023-04-04T08:32:59.690Z,16.12
2023-04-04T08:35:27.393Z,16.94
2023-04-04T08:37:57.272Z,16.13
2023-04-04T08:40:25.055Z,16.69
2023-04-04T08:42:52.924Z,13.58
2023-04-04T08:45:20.591Z,13.02
2023-04-04T08:47:50.251Z,16.56
2023-04-04T08:50:18.539Z,17.19
2023-04-04T08:52:46.423Z,14.08
2023-04-04T08:55:15.865Z,13.16
2023-04-04T08:57:43.533Z,14.71
2023-04-04T09:00:11.780Z,15.55
2023-04-04T09:02:41.316Z,14.94
2023-04-04T09:05:09.972Z,15.04
2023-04-04T09:07:39.266Z,16.81
2023-04-04T09:10:09.326Z,15.91
2023-04-04T09:12:38.675Z,17.46
2023-04-04T09:15:06.670Z,15.22
2023-04-04T09:17:34.320Z,17.97
2023-04-04T09:20:04.038Z,17.14
2023-04-04T09:22:31.680Z,15.96
2023-04-04T09:25:01.121Z,14.32
2023-04-04T09:27:28.725Z,17.68
2023-04-04T09:29:57.924Z,18.23
2023-04-04T09:32:26.218Z,18.85
2023-04-04T09:34:53.878Z,19.33
2023-04-04T09:37:21.468Z,16.92
2023-04-04T09:39:49.357Z,16.60
2023-04-04T09:42:17.145Z,17.59
2023-04-04T09:44:44.793Z,16.73
2023-04-04T09:49:58.622Z,16.13
2023-04-04T09:52:26.263Z,18.74
2023-04-04T09:54:58.154Z,18.48
2023-04-04T09:57:26.475Z,17.54
2023-04-04T09:59:54.199Z,16.97
2023-04-04T10:02:22.059Z,17.73
2023-04-04T10:05:03.358Z,19.84
2023-04-04T10:07:33.526Z,17.51
2023-04-04T10:10:02.359Z,19.04
2023-04-04T10:12:30.001Z,17.31
2023-04-04T10:14:57.873Z,16.14
2023-04-04T10:17:26.111Z,16.00
2023-04-04T10:19:55.186Z,17.93
2023-04-04T10:22:23.639Z,17.41
2023-04-04T10:24:53.961Z,16.31
2023-04-04T10:27:22.187Z,16.78
2023-04-04T10:29:49.815Z,16.75
2023-04-04T10:32:18.368Z,16.88
2023-04-04T10:34:46.456Z,17.83
2023-04-04T10:37:16.651Z,16.65
2023-04-04T10:39:45.910Z,14.84
2023-04-04T10:42:14.467Z,16.00
2023-04-04T10:44:42.577Z,17.56
2023-04-04T10:47:10.686Z,15.77
2023-04-04T10:49:38.280Z,16.60
2023-04-04T10:52:06.252Z,18.00
2023-04-04T10:54:35.311Z,17.91
2023-04-04T10:57:03.910Z,16.95
2023-04-04T10:59:31.831Z,16.61
2023-04-04T11:01:59.957Z,18.84
2023-04-04T11:04:32.272Z,19.95
2023-04-04T11:07:10.758Z,17.72
2023-04-04T11:09:52.748Z,19.03
2023-04-04T11:12:24.280Z,19.28
2023-04-04T11:14:58.980Z,16.75
2023-04-04T11:17:47.809Z,17.40
2023-04-04T11:20:16.183Z,19.55
2023-04-04T11:22:43.839Z,17.52
2023-04-04T11:25:30.523Z,19.53
2023-04-04T11:27:58.514Z,20.99
2023-04-04T11:30:26.388Z,20.86
2023-04-04T11:33:04.223Z,20.49
2023-04-04T11:35:34.584Z,19.13
2023-04-04T11:38:03.596Z,17.31
2023-04-04T11:40:40.121Z,17.91
2023-04-04T11:43:12.021Z,18.30
2023-04-04T11:45:44.533Z,19.04
2023-04-04T11:48:12.815Z,17.54
2023-04-04T11:50:40.881Z,20.39
2023-04-04T11:53:09.742Z,23.02
2023-04-04T11:55:42.851Z,23.56
2023-04-04T11:58:12.774Z,22.51
2023-04-04T12:00:41.507Z,24.36
2023-04-04T12:03:11.320Z,23.72
2023-04-04T12:05:39.879Z,23.75
2023-04-04T12:08:08.593Z,23.15
2023-04-04T12:10:36.708Z,19.85
2023-04-04T12:13:08.261Z,18.89
2023-04-04T12:15:36.153Z,16.69
2023-04-04T12:18:04.077Z,18.43
2023-04-04T12:20:32.280Z,22.40
2023-04-04T12:23:00.103Z,24.66
2023-04-04T12:25:29.429Z,24.36
2023-04-04T12:27:57.124Z,24.92
2023-04-04T12:30:26.138Z,22.21
2023-04-04T12:32:53.758Z,22.01
2023-04-04T12:35:21.423Z,20.34
2023-04-04T12:38:02.421Z,18.86
2023-04-04T12:40:30.569Z,18.93
2023-04-04T12:42:58.208Z,19.99
2023-04-04T12:45:28.472Z,24.17
2023-04-04T12:47:56.944Z,25.73
2023-04-04T12:50:26.344Z,22.59
2023-04-04T12:53:00.224Z,20.49
2023-04-04T12:55:36.195Z,21.25
2023-04-04T12:58:04.035Z,18.67
2023-04-04T13:00:33.049Z,19.66
2023-04-04T13:03:00.936Z,21.82
2023-04-04T13:05:28.589Z,21.71
2023-04-04T13:08:05.950Z,20.89
2023-04-04T13:10:53.593Z,22.49
2023-04-04T13:13:31.456Z,24.63
2023-04-04T13:16:00.918Z,23.10
2023-04-04T13:18:35.482Z,19.09
2023-04-04T13:21:03.117Z,19.60
2023-04-04T13:23:30.751Z,18.17
2023-04-04T13:25:59.517Z,22.11
2023-04-04T13:28:27.269Z,25.64
2023-04-04T13:30:54.977Z,28.03
2023-04-04T13:33:23.916Z,24.42
2023-04-04T13:35:51.774Z,20.17
2023-04-04T13:38:19.614Z,20.98
2023-04-04T13:40:47.503Z,18.99
2023-04-04T13:43:16.075Z,20.44
2023-04-04T13:45:44.092Z,25.82
2023-04-04T13:48:11.766Z,27.37
2023-04-04T13:50:41.976Z,29.01
2023-04-04T13:53:10.377Z,24.00
2023-04-04T13:55:38.949Z,22.79
2023-04-04T13:58:07.649Z,27.79
2023-04-04T14:00:35.262Z,27.76
2023-04-04T14:03:03.556Z,28.09
2023-04-04T14:05:31.307Z,27.58
2023-04-04T14:08:00.330Z,24.32
2023-04-04T14:10:28.000Z,23.26
2023-04-04T14:12:55.661Z,19.38
2023-04-04T14:15:24.193Z,23.31
2023-04-04T14:17:51.804Z,23.30
2023-04-04T14:20:19.467Z,23.65
2023-04-04T14:22:47.225Z,23.56
2023-04-04T14:25:16.457Z,22.20
2023-04-04T14:27:44.054Z,21.13
2023-04-04T14:30:12.102Z,19.43
2023-04-04T14:32:39.733Z,20.83
2023-04-04T14:35:07.866Z,20.09
2023-04-04T14:37:35.823Z,17.91
2023-04-04T14:40:03.498Z,20.07
2023-04-04T14:42:32.597Z,22.30
2023-04-04T14:45:02.322Z,23.88
2023-04-04T14:47:29.959Z,20.50
2023-04-04T14:49:58.136Z,21.43
2023-04-04T14:52:25.756Z,19.46
2023-04-04T14:54:53.339Z,22.18
2023-04-04T14:57:20.943Z,23.39
2023-04-04T14:59:49.958Z,25.29
2023-04-04T15:02:18.221Z,23.03
2023-04-04T15:04:46.063Z,21.30
2023-04-04T15:07:13.942Z,22.55
2023-04-04T15:09:41.542Z,23.86
2023-04-04T15:12:09.177Z,23.96
2023-04-04T15:14:37.515Z,27.10
2023-04-04T15:17:06.828Z,28.73
2023-04-04T15:19:34.506Z,32.09
2023-04-04T15:22:02.119Z,28.16
2023-04-04T15:24:29.768Z,26.67
2023-04-04T15:26:59.096Z,24.79
2023-04-04T15:29:26.784Z,24.48
2023-04-04T15:31:54.483Z,24.50
2023-04-04T15:34:23.425Z,25.41
2023-04-04T15:36:52.060Z,26.00
2023-04-04T15:39:19.741Z,25.17
2023-04-04T15:41:47.358Z,24.92
2023-04-04T15:44:16.065Z,27.34
2023-04-04T15:46:45.194Z,28.35
2023-04-04T15:49:12.889Z,26.82
2023-04-04T15:51:44.803Z,25.67
2023-04-04T15:54:12.536Z,25.27
2023-04-04T15:56:40.182Z,25.29
2023-04-04T15:59:07.875Z,23.66
2023-04-04T16:01:35.541Z,23.94
2023-04-04T16:04:03.279Z,21.98
2023-04-04T16:06:31.252Z,20.20
2023-04-04T16:09:00.273Z,19.19
2023-04-04T16:11:27.968Z,19.27
2023-04-04T16:13:55.869Z,19.67
2023-04-04T16:16:23.567Z,19.35
2023-04-04T16:18:51.206Z,19.79
2023-04-04T16:21:19.042Z,18.68
2023-04-04T16:23:46.645Z,17.47
2023-04-04T16:26:15.735Z,18.74
2023-04-04T16:28:44.848Z,20.47
2023-04-04T16:31:15.088Z,20.90
2023-04-04T16:33:42.787Z,20.50
2023-04-04T16:36:10.607Z,18.48
2023-04-04T16:38:38.430Z,18.30
2023-04-04T16:41:06.230Z,18.68
2023-04-04T16:43:35.159Z,20.51
2023-04-04T16:46:02.894Z,18.95
2023-04-04T16:48:30.557Z,19.00
2023-04-04T16:50:58.199Z,18.31
2023-04-04T16:53:25.917Z,17.70
2023-04-04T16:55:53.695Z,19.28
2023-04-04T16:58:21.332Z,20.09
2023-04-04T17:00:50.511Z,20.51
2023-04-04T17:03:18.180Z,17.53
2023-04-04T17:05:45.856Z,18.00
2023-04-04T17:08:13.510Z,18.03
2023-04-04T17:10:41.794Z,17.15
2023-04-04T17:13:09.708Z,18.41
2023-04-04T17:15:37.650Z,18.09
2023-04-04T17:18:07.065Z,17.22
2023-04-04T17:20:35.079Z,16.62
2023-04-04T17:23:02.703Z,17.46
2023-04-04T17:25:30.956Z,17.20
2023-04-04T17:27:58.631Z,17.52
2023-04-04T17:30:26.457Z,18.10
2023-04-04T17:32:55.119Z,19.56
2023-04-04T17:35:24.487Z,18.99
2023-04-04T17:37:52.140Z,17.95
2023-04-04T17:40:20.994Z,17.96
2023-04-04T17:42:48.701Z,18.60
2023-04-04T17:45:16.519Z,19.25
2023-04-04T17:47:46.125Z,19.27
2023-04-04T17:50:14.401Z,18.24
2023-04-04T17:52:43.387Z,19.64
2023-04-04T17:55:11.343Z,20.05
2023-04-04T17:57:39.780Z,19.24
2023-04-04T18:00:08.130Z,18.64
2023-04-04T18:02:35.807Z,19.73
2023-04-04T18:05:03.668Z,19.78
2023-04-04T18:07:31.326Z,19.41
2023-04-04T18:10:00.550Z,20.16
2023-04-04T18:12:30.178Z,19.84
2023-04-04T18:14:57.946Z,19.04
2023-04-04T18:17:25.820Z,19.94
2023-04-04T18:19:54.600Z,19.32
2023-04-04T18:22:22.622Z,19.69
2023-04-04T18:24:50.297Z,19.99
2023-04-04T18:27:19.287Z,19.03
2023-04-04T18:29:46.930Z,18.76
2023-04-04T18:32:14.616Z,19.77
2023-04-04T18:34:42.268Z,19.53
2023-04-04T18:37:09.916Z,20.03
2023-04-04T18:39:37.715Z,19.65
2023-04-04T18:42:05.498Z,19.63
2023-04-04T18:44:34.537Z,19.70
2023-04-04T18:47:05.027Z,20.01
2023-04-04T18:49:33.058Z,19.63
2023-04-04T18:52:00.890Z,19.78
2023-04-04T18:54:28.603Z,19.72
2023-04-04T18:56:57.600Z,19.66
2023-04-04T18:59:25.346Z,19.81
2023-04-04T19:01:56.262Z,19.82
2023-04-04T19:04:23.987Z,19.57
2023-04-04T19:06:52.124Z,19.60
2023-04-04T19:09:20.383Z,18.92
2023-04-04T19:11:48.074Z,19.39
2023-04-04T19:14:15.879Z,19.66
2023-04-04T19:16:43.590Z,19.35
2023-04-04T19:19:12.992Z,19.42
2023-04-04T19:21:40.908Z,19.53
2023-04-04T19:24:08.854Z,19.20
2023-04-04T19:26:36.641Z,19.38
2023-04-04T19:29:04.455Z,19.52
2023-04-04T19:31:33.100Z,19.60
2023-04-04T19:34:01.904Z,19.29
2023-04-04T19:36:31.858Z,19.31
2023-04-04T19:39:00.108Z,19.38
2023-04-04T19:41:30.956Z,19.29
2023-04-04T19:43:58.552Z,19.45
2023-04-04T19:46:26.864Z,19.37
2023-04-04T19:48:54.819Z,19.09
2023-04-04T19:51:40.201Z,18.84
2023-04-04T19:54:09.345Z,18.74
2023-04-04T19:56:37.305Z,18.78
2023-04-04T19:59:09.073Z,18.68
2023-04-04T20:01:44.680Z,18.57
2023-04-04T20:04:15.184Z,18.64
2023-04-04T20:06:44.225Z,18.44
2023-04-04T20:09:13.582Z,18.61
2023-04-04T20:11:41.285Z,18.18
2023-04-04T20:14:09.789Z,18.12
2023-04-04T20:16:37.748Z,18.47
2023-04-04T20:19:06.728Z,18.41
2023-04-04T20:21:35.711Z,18.22
2023-04-04T20:24:08.065Z,18.05
2023-04-04T20:26:55.410Z,18.13
2023-04-04T20:29:23.919Z,17.85
2023-04-04T20:31:52.445Z,17.55
2023-04-04T20:34:41.506Z,17.46
2023-04-04T20:37:10.798Z,17.04
2023-04-04T20:39:45.531Z,16.42
2023-04-04T20:42:28.170Z,16.77
2023-04-04T20:44:56.071Z,17.00
2023-04-04T20:47:30.443Z,17.27
2023-04-04T20:49:58.080Z,17.11
2023-04-04T20:52:25.806Z,16.56
2023-04-04T20:54:54.852Z,17.01
2023-04-04T20:57:23.766Z,17.15
2023-04-04T20:59:51.397Z,17.21
2023-04-04T21:02:20.675Z,17.01
2023-04-04T21:04:51.263Z,17.09
2023-04-04T21:07:46.351Z,17.10
2023-04-04T21:10:21.951Z,17.11
2023-04-04T21:12:49.688Z,17.09
2023-04-04T21:15:21.471Z,17.06
2023-04-04T21:17:49.266Z,17.09
2023-04-04T21:20:17.392Z,16.82
2023-04-04T21:22:52.787Z,16.98
2023-04-04T21:25:40.833Z,16.69
2023-04-04T21:28:08.520Z,16.69
2023-04-04T21:30:40.976Z,16.57
2023-04-04T21:33:08.854Z,16.47
2023-04-04T21:35:42.535Z,16.55
2023-04-04T21:38:22.790Z,16.49
2023-04-04T21:40:51.986Z,16.44
2023-04-04T21:43:19.723Z,16.64
2023-04-04T21:45:47.368Z,16.48
2023-04-04T21:48:15.040Z,16.29
2023-04-04T21:50:42.876Z,16.14
2023-04-04T21:53:10.664Z,15.85
2023-04-04T21:55:38.507Z,15.86
2023-04-04T21:58:07.612Z,15.48
2023-04-04T22:00:36.205Z,15.89
2023-04-04T22:03:03.923Z,15.73
2023-04-04T22:05:38.435Z,15.97
2023-04-04T22:08:07.033Z,16.13
2023-04-04T22:10:34.732Z,15.72
2023-04-04T22:13:02.460Z,15.82
2023-04-04T22:15:31.549Z,15.90
2023-04-04T22:18:03.738Z,15.49
2023-04-04T22:20:32.107Z,15.40
2023-04-04T22:22:59.794Z,15.58
2023-04-04T22:25:27.506Z,15.33
2023-04-04T22:27:55.165Z,15.40
2023-04-04T22:30:22.841Z,15.32
2023-04-04T22:32:51.914Z,15.27
2023-04-04T22:35:19.587Z,15.06
2023-04-04T22:37:47.274Z,15.24
2023-04-04T22:40:15.278Z,15.01
2023-04-04T22:42:42.924Z,15.46
2023-04-04T22:45:11.118Z,15.41
2023-04-04T22:47:47.404Z,15.26
2023-04-04T22:50:16.664Z,15.24
2023-04-04T22:52:44.445Z,15.19
2023-04-04T22:55:12.172Z,15.22
2023-04-04T22:57:39.843Z,15.07
2023-04-04T23:00:11.211Z,15.26
2023-04-04T23:02:38.962Z,15.12
2023-04-04T23:05:08.504Z,14.95
2023-04-04T23:07:37.744Z,15.06
2023-04-04T23:10:05.789Z,15.13
2023-04-04T23:12:33.460Z,15.11
2023-04-04T23:15:03.706Z,15.20
2023-04-04T23:17:32.961Z,15.11
2023-04-04T23:20:00.953Z,14.97
2023-04-04T23:22:28.882Z,14.78
2023-04-04T23:24:57.928Z,14.84
2023-04-04T23:27:25.625Z,14.94
2023-04-04T23:29:56.956Z,14.92
2023-04-04T23:32:24.724Z,14.96
2023-04-04T23:34:52.448Z,15.08
2023-04-04T23:37:20.163Z,15.17
2023-04-04T23:39:47.874Z,15.03
2023-04-04T23:42:16.887Z,14.99
2023-04-04T23:44:44.634Z,14.92
2023-04-04T23:47:12.233Z,14.96
2023-04-04T23:49:39.886Z,15.11
2023-04-04T23:52:07.730Z,15.20
2023-04-04T23:54:35.710Z,15.17
2023-04-04T23:57:03.533Z,15.01
2023-04-04T23:59:32.633Z,14.80
